Time;durP1;ratioP1;P1;durP2;ratioP2;P2;SDS_P1;SDS_P2;PMS_P1;PMS_P2;Temp;Humidity;BMP_temperature;BMP_pressure;BME280_temperature;BME280_humidity;BME280_pressure;Samples;Min_cycle;Max_cycle;Signal;HPM_P1;HPM_P2
2022/02/19 00:01:27;;;;;;;;;;;7.30;99.90;;;7.36;65.44;100192.13;5113812;28;19970;-73
2022/02/19 00:03:56;;;;;;;;;;;7.40;99.90;;;7.38;65.94;100206.16;5113397;28;19934;-70
2022/02/19 00:06:26;;;;;;;;;;;7.30;99.90;;;7.35;65.86;100205.28;5113754;28;20296;-74
2022/02/19 00:08:55;;;;;;;;;;;7.30;99.90;;;7.30;66.14;100211.44;5113926;28;19993;-71
2022/02/19 00:11:23;;;;;;;;;;;7.30;99.90;;;6.85;65.75;100129.16;5114025;28;19920;-73
2022/02/19 00:13:51;;;;;;;;;;;7.20;99.90;;;7.18;65.61;100227.22;5112428;28;20407;-71
2022/02/19 00:16:19;;;;;;;;;;;7.10;99.90;;;7.28;65.35;100249.13;5113678;28;20322;-72
2022/02/19 00:18:49;;;;;;;;;;;7.20;99.90;;;7.28;65.46;100246.50;5113422;28;20387;-72
2022/02/19 00:21:18;;;;;;;;;;;7.20;99.90;;;7.07;65.36;100244.78;5113493;28;19969;-74
2022/02/19 00:23:47;;;;;;;;;;;7.10;99.90;;;7.14;65.05;100241.25;5114710;28;19973;-71
2022/02/19 00:26:16;;;;;;;;;;;7.10;99.90;;;7.22;65.03;100260.53;5116125;28;19951;-76
2022/02/19 00:28:44;;;;;;;;;;;7.10;99.90;;;7.00;65.57;100264.06;5117206;28;19920;-76
2022/02/19 00:31:12;;;;;;;;;;;7.00;99.90;;;7.12;65.57;100263.19;5117284;28;19926;-76
2022/02/19 00:33:42;;;;;;;;;;;7.10;99.90;;;7.19;65.49;100288.59;5116017;28;19921;-76
2022/02/19 00:36:10;;;;;;;;;;;7.10;99.90;;;6.86;64.38;100236.91;5117103;28;20335;-76
2022/02/19 00:38:40;;;;;;;;;;;7.10;99.90;;;7.05;63.23;100259.69;5132910;27;19920;-76
2022/02/19 00:41:10;;;;;;;;;;;7.00;99.90;;;7.11;64.11;100292.97;5115776;28;19923;-76
2022/02/19 00:43:38;;;;;;;;;;;7.00;99.90;;;7.04;63.90;100270.19;5117098;28;19919;-76
2022/02/19 00:46:07;;;;;;;;;;;7.00;99.90;;;6.99;63.45;100277.19;5115625;28;19923;-76
2022/02/19 00:48:35;;;;;;;;;;;7.00;99.90;;;7.14;63.70;100306.16;5117116;28;19926;-76
2022/02/19 00:51:17;;;;;;;;;;;7.10;99.90;;;7.01;64.11;100304.34;5115609;28;19927;-76
2022/02/19 00:53:45;;;;;;;;;;;7.00;99.90;;;7.11;63.64;100314.91;5132406;27;19949;-76
2022/02/19 00:56:15;;;;;;;;;;;7.00;99.90;;;6.98;63.56;100301.75;5116464;28;20017;-76
2022/02/19 00:58:43;;;;;;;;;;;7.00;99.90;;;7.09;64.37;100336.78;5115489;28;20261;-76
2022/02/19 01:01:11;;;;;;;;;;;7.00;99.90;;;6.86;64.50;100315.75;5116391;28;19926;-76
2022/02/19 01:03:58;;;;;;;;;;;7.00;99.90;;;7.03;63.90;100329.78;5116622;28;20414;-75
2022/02/19 01:06:28;;;;;;;;;;;7.00;99.90;;;7.17;64.11;100342.94;5116666;28;19993;-76
2022/02/19 01:08:57;;;;;;;;;;;7.00;99.90;;;7.14;64.06;100361.38;5116530;28;20417;-75
2022/02/19 01:11:27;;;;;;;;;;;7.10;99.90;;;7.24;64.08;100363.09;5116234;28;19926;-76
2022/02/19 01:13:57;;;;;;;;;;;7.20;99.90;;;7.22;65.20;100388.53;5116275;28;19963;-76
2022/02/19 01:16:25;;;;;;;;;;;7.20;99.90;;;7.19;64.32;100381.53;5115166;28;20360;-76
2022/02/19 01:18:53;;;;;;;;;;;7.10;99.90;;;7.21;63.65;100378.91;5115946;28;20350;-76
2022/02/19 01:21:22;;;;;;;;;;;7.20;99.90;;;7.09;64.18;100390.28;5115044;28;19920;-75
2022/02/19 01:23:50;;;;;;;;;;;7.10;99.90;;;7.27;64.20;100371.91;5116293;28;19924;-76
2022/02/19 01:26:19;;;;;;;;;;;7.20;99.90;;;7.25;63.88;100413.09;5116155;28;20369;-76
2022/02/19 01:28:53;;;;;;;;;;;7.20;99.90;;;7.24;64.41;100415.69;5114953;28;19926;-76
2022/02/19 01:31:26;;;;;;;;;;;7.20;99.90;;;7.30;64.27;100434.13;5149361;27;19920;-76
2022/02/19 01:33:54;;;;;;;;;;;7.20;99.90;;;7.20;63.00;100406.09;5115885;28;19919;-76
2022/02/19 01:36:23;;;;;;;;;;;7.30;99.90;;;7.20;61.90;100416.59;5114347;28;19920;-76
2022/02/19 01:38:51;;;;;;;;;;;7.20;99.90;;;7.16;62.51;100441.13;5115898;28;19923;-75
2022/02/19 01:41:19;;;;;;;;;;;7.10;99.90;;;7.20;63.41;100456.06;5114174;28;20387;-76
2022/02/19 01:43:49;;;;;;;;;;;7.10;99.90;;;7.16;63.55;100441.13;5131131;27;20356;-76
2022/02/19 01:46:19;;;;;;;;;;;7.10;99.90;;;7.10;63.00;100441.97;5114486;28;19923;-76
2022/02/19 01:48:49;;;;;;;;;;;7.00;99.90;;;7.10;63.34;100465.63;5131658;27;19919;-75
2022/02/19 01:51:22;;;;;;;;;;;7.00;99.90;;;6.94;63.73;100447.19;5114497;28;19993;-75
2022/02/19 01:53:50;;;;;;;;;;;7.00;99.90;;;7.04;64.06;100464.75;5131439;27;19920;-75
2022/02/19 01:56:27;;;;;;;;;;;7.10;99.90;;;7.17;64.63;100483.22;5114488;28;19923;-76
2022/02/19 01:59:29;;;;;;;;;;;7.10;99.90;;;7.23;65.10;100495.50;5114312;28;19923;-76
2022/02/19 02:02:16;;;;;;;;;;;7.20;99.90;;;7.15;64.60;100486.69;5131427;27;19928;-76
2022/02/19 02:05:08;;;;;;;;;;;7.20;99.90;;;7.13;64.75;100485.81;5115649;28;19978;-75
2022/02/19 02:07:40;;;;;;;;;;;7.20;99.90;;;7.11;64.77;100513.84;5131261;27;19923;-75
2022/02/19 02:10:09;;;;;;;;;;;7.10;99.90;;;7.17;64.64;100508.63;5114381;28;19919;-75
2022/02/19 02:12:38;;;;;;;;;;;7.10;99.90;;;7.11;65.01;100525.25;5113912;28;19931;-75
2022/02/19 02:15:24;;;;;;;;;;;7.10;99.90;;;7.24;65.03;100518.28;5114228;28;19919;-76
2022/02/19 02:18:04;;;;;;;;;;;7.10;99.90;;;7.11;64.81;100529.63;5131200;27;19961;-75
2022/02/19 02:20:33;;;;;;;;;;;7.00;99.90;;;7.07;65.50;100517.34;5113766;28;19923;-75
2022/02/19 02:23:04;;;;;;;;;;;7.00;99.90;;;7.12;65.73;100542.78;5114016;28;19920;-75
2022/02/19 02:25:33;;;;;;;;;;;7.00;99.90;;;6.85;63.98;100507.63;5113708;28;20355;-75
2022/02/19 02:28:09;;;;;;;;;;;7.00;99.90;;;7.07;64.45;100544.53;5113793;28;20128;-75
2022/02/19 02:30:39;;;;;;;;;;;7.00;99.90;;;7.06;64.21;100528.75;5113891;28;19981;-75
2022/02/19 02:33:18;;;;;;;;;;;7.00;99.90;;;6.79;64.69;100511.09;5115044;28;19927;-76
2022/02/19 02:35:53;;;;;;;;;;;6.90;99.90;;;7.11;64.93;100540.16;5130836;27;19979;-76
2022/02/19 02:38:40;;;;;;;;;;;7.00;99.90;;;7.12;65.00;100549.81;5130892;27;19919;-75
2022/02/19 02:41:08;;;;;;;;;;;7.00;99.90;;;6.81;64.06;100492.72;5114767;28;19926;-75
2022/02/19 02:43:37;;;;;;;;;;;7.00;99.90;;;6.98;63.22;100555.00;5114437;28;19930;-75
2022/02/19 02:46:06;;;;;;;;;;;6.90;99.90;;;6.78;63.00;100533.00;5112436;28;19926;-75
2022/02/19 02:48:34;;;;;;;;;;;6.80;99.90;;;7.02;63.62;100562.03;5113290;28;19971;-76
2022/02/19 02:51:03;;;;;;;;;;;6.90;99.90;;;7.09;64.31;100578.72;5113383;28;19920;-75
2022/02/19 02:53:48;;;;;;;;;;;7.00;99.90;;;7.04;64.46;100578.72;5113544;28;19969;-75
2022/02/19 02:56:17;;;;;;;;;;;7.00;99.90;;;7.02;63.84;100571.66;5130436;27;19920;-76
2022/02/19 02:58:45;;;;;;;;;;;7.00;99.90;;;6.52;63.31;100470.66;5129928;27;19919;-75
2022/02/19 03:01:14;;;;;;;;;;;7.00;99.90;;;6.90;62.51;100569.88;5130187;27;20104;-75
2022/02/19 03:03:45;;;;;;;;;;;6.90;99.90;;;6.94;62.29;100565.50;5130429;27;19955;-76
2022/02/19 03:06:14;;;;;;;;;;;6.90;99.90;;;6.82;62.82;100558.41;5114222;28;19923;-75
2022/02/19 03:08:48;;;;;;;;;;;6.90;99.90;;;7.00;63.01;100597.97;5130108;27;19949;-75
2022/02/19 03:11:16;;;;;;;;;;;6.90;99.90;;;6.84;63.05;100561.94;5114365;28;20011;-76
2022/02/19 03:13:46;;;;;;;;;;;6.90;99.90;;;6.17;62.87;100459.94;5147468;27;19942;-75
2022/02/19 03:16:15;;;;;;;;;;;6.90;99.90;;;6.96;63.20;100603.19;5113036;28;20018;-76
2022/02/19 03:18:44;;;;;;;;;;;6.90;99.90;;;6.94;63.16;100612.81;5113384;28;19920;-75
2022/02/19 03:21:12;;;;;;;;;;;6.80;99.90;;;6.97;63.30;100612.81;5114106;28;20283;-75
2022/02/19 03:23:40;;;;;;;;;;;6.90;99.90;;;6.70;62.88;100579.38;5114391;28;19920;-75
2022/02/19 03:26:12;;;;;;;;;;;6.90;99.90;;;6.87;62.51;100621.53;5130142;28;20345;-75
2022/02/19 03:28:41;;;;;;;;;;;6.80;99.90;;;6.83;63.32;100615.34;5113012;28;19971;-75
2022/02/19 03:31:13;;;;;;;;;;;6.90;99.90;;;6.92;63.28;100628.59;5130056;28;19942;-76
2022/02/19 03:33:49;;;;;;;;;;;7.00;99.90;;;6.27;63.10;100515.16;5130114;28;19971;-75
2022/02/19 03:36:21;;;;;;;;;;;7.00;99.90;;;6.96;63.13;100650.50;5112749;28;19926;-75
2022/02/19 03:38:51;;;;;;;;;;;6.90;99.90;;;7.02;63.22;100648.81;5130012;28;19920;-75
2022/02/19 03:41:27;;;;;;;;;;;6.90;99.90;;;7.18;63.14;100666.41;5112677;28;19919;-75
2022/02/19 03:44:00;;;;;;;;;;;7.00;99.90;;;6.76;63.01;100610.94;5112771;28;20019;-76
2022/02/19 03:46:30;;;;;;;;;;;7.00;99.90;;;6.57;62.46;100588.03;5129938;28;19962;-76
2022/02/19 03:49:09;;;;;;;;;;;7.00;99.90;;;6.95;61.64;100664.53;5129545;28;20277;-75
2022/02/19 03:51:37;;;;;;;;;;;6.90;99.90;;;7.17;61.86;100677.81;5112870;28;19920;-76
2022/02/19 03:54:06;;;;;;;;;;;7.00;99.90;;;6.96;61.96;100614.59;5113854;27;20331;-75
2022/02/19 03:56:37;;;;;;;;;;;7.00;99.90;;;7.06;61.82;100689.16;5130096;28;20321;-76
2022/02/19 03:59:09;;;;;;;;;;;7.00;99.90;;;6.91;61.93;100673.28;5115887;28;19919;-76
2022/02/19 04:01:37;;;;;;;;;;;7.00;99.90;;;7.14;62.57;100709.34;5133700;27;19919;-75
2022/02/19 04:04:13;;;;;;;;;;;7.00;99.90;;;7.18;62.93;100699.75;5133496;27;19919;-76
2022/02/19 04:06:42;;;;;;;;;;;7.10;99.90;;;7.18;62.78;100712.91;5118019;27;19920;-75
2022/02/19 04:09:11;;;;;;;;;;;7.10;99.90;;;6.88;63.23;100707.41;5116414;28;20063;-76
2022/02/19 04:11:45;;;;;;;;;;;7.00;99.90;;;4.76;63.40;100315.38;5133639;27;20446;-75
2022/02/19 04:14:15;;;;;;;;;;;7.00;99.90;;;7.00;62.74;100734.69;5133631;27;19926;-75
2022/02/19 04:16:58;;;;;;;;;;;6.90;99.90;;;7.07;63.40;100749.63;5133498;27;20010;-75
2022/02/19 04:19:28;;;;;;;;;;;7.00;99.90;;;7.08;62.60;100750.53;5116300;28;19920;-75
2022/02/19 04:21:57;;;;;;;;;;;7.00;99.90;;;7.04;63.14;100762.75;5117466;28;19927;-75
2022/02/19 04:24:27;;;;;;;;;;;7.00;99.90;;;7.15;63.41;100736.53;5116211;28;20400;-75
2022/02/19 04:27:09;;;;;;;;;;;7.10;99.90;;;6.93;62.99;100745.16;5150813;27;19920;-75
2022/02/19 04:29:38;;;;;;;;;;;7.00;99.90;;;7.07;62.83;100749.63;5116085;28;19962;-75
2022/02/19 04:32:09;;;;;;;;;;;7.00;99.90;;;6.99;62.65;100743.41;5115961;28;19920;-75
2022/02/19 04:34:48;;;;;;;;;;;7.00;99.90;;;6.83;63.60;100727.53;5150549;27;19928;-76
2022/02/19 04:37:18;;;;;;;;;;;7.00;99.90;;;6.92;63.46;100806.47;5115828;28;20347;-75
2022/02/19 04:39:47;;;;;;;;;;;6.90;99.90;;;6.94;63.78;100774.06;5115674;28;20011;-75
2022/02/19 04:42:26;;;;;;;;;;;6.90;99.90;;;6.81;64.08;100766.94;5150150;27;19924;-75
2022/02/19 04:44:59;;;;;;;;;;;6.80;99.90;;;6.94;64.13;100778.44;5150434;27;19919;-75
2022/02/19 04:47:29;;;;;;;;;;;6.90;99.90;;;6.97;64.02;100804.75;5150235;27;19934;-76
2022/02/19 04:49:57;;;;;;;;;;;6.90;99.90;;;6.90;63.87;100795.94;5115666;28;19926;-75
2022/02/19 04:52:26;;;;;;;;;;;6.90;99.90;;;6.86;64.25;100806.41;5116558;28;19989;-76
2022/02/19 04:54:55;;;;;;;;;;;6.80;99.90;;;6.92;64.07;100801.22;5115566;28;19954;-75
2022/02/19 04:57:25;;;;;;;;;;;6.80;99.90;;;6.29;63.73;100707.75;5132710;27;19962;-75
2022/02/19 04:59:54;;;;;;;;;;;6.80;99.90;;;6.62;63.64;100735.22;5132963;27;20464;-75
2022/02/19 05:02:29;;;;;;;;;;;6.90;99.90;;;6.98;63.48;100822.28;5115412;28;20456;-75
2022/02/19 05:04:57;;;;;;;;;;;6.90;99.90;;;7.01;63.68;100827.56;5116910;28;19926;-75
2022/02/19 05:07:28;;;;;;;;;;;6.90;99.90;;;6.64;64.05;100773.78;5132443;27;19984;-76
2022/02/19 05:09:57;;;;;;;;;;;6.90;99.90;;;6.43;64.00;100747.28;5131609;27;19920;-76
2022/02/19 05:12:33;;;;;;;;;;;7.00;99.90;;;6.98;63.47;100801.25;5115424;28;19930;-76
2022/02/19 05:15:06;;;;;;;;;;;6.90;99.90;;;6.31;63.25;100713.91;5132396;27;20265;-75
2022/02/19 05:17:47;;;;;;;;;;;6.90;99.90;;;7.01;63.29;100840.72;5115189;28;19919;-75
2022/02/19 05:20:16;;;;;;;;;;;6.90;99.90;;;6.93;64.02;100847.69;5115149;28;19920;-75
2022/02/19 05:22:45;;;;;;;;;;;6.80;99.90;;;6.94;64.12;100858.19;5114620;28;19920;-75
2022/02/19 05:25:15;;;;;;;;;;;6.80;99.90;;;6.49;63.86;100768.38;5115135;28;19920;-75
2022/02/19 05:27:46;;;;;;;;;;;6.80;99.90;;;6.69;64.06;100808.00;5114933;28;19973;-76
2022/02/19 05:30:18;;;;;;;;;;;6.80;99.90;;;6.89;64.68;100854.63;5132093;27;19969;-75
2022/02/19 05:33:07;;;;;;;;;;;6.80;99.90;;;6.94;64.77;100847.69;5115998;28;20035;-76
2022/02/19 05:35:36;;;;;;;;;;;6.90;99.90;;;6.91;64.61;100863.41;5131915;27;20010;-76
2022/02/19 05:38:04;;;;;;;;;;;6.80;99.90;;;6.93;64.59;100872.19;5115934;28;19920;-75
2022/02/19 05:40:33;;;;;;;;;;;6.90;99.90;;;6.94;64.72;100862.56;5114471;28;19926;-75
2022/02/19 05:43:08;;;;;;;;;;;6.90;99.90;;;6.89;64.89;100859.88;5131709;27;20002;-76
2022/02/19 05:45:36;;;;;;;;;;;6.90;99.90;;;6.86;65.37;100870.38;5114573;28;20381;-76
2022/02/19 05:48:05;;;;;;;;;;;6.80;99.90;;;6.74;65.15;100854.47;5114231;28;19920;-76
2022/02/19 05:50:53;;;;;;;;;;;6.80;99.90;;;6.89;64.89;100882.69;5115544;28;19923;-75
2022/02/19 05:53:39;;;;;;;;;;;6.80;99.90;;;6.96;64.52;100876.63;5114481;28;19965;-75
2022/02/19 05:56:07;;;;;;;;;;;6.80;99.90;;;6.90;64.77;100880.06;5114439;28;19920;-76
2022/02/19 05:58:37;;;;;;;;;;;6.90;99.90;;;6.96;64.68;100876.63;5131507;27;20430;-75
2022/02/19 06:01:13;;;;;;;;;;;6.90;99.90;;;7.02;65.48;100879.31;5114360;28;19923;-75
2022/02/19 06:03:46;;;;;;;;;;;6.90;99.90;;;7.05;65.49;100888.09;5114009;28;19926;-75
2022/02/19 06:06:19;;;;;;;;;;;7.00;99.90;;;7.05;64.81;100892.47;5114160;28;19991;-75
2022/02/19 06:08:48;;;;;;;;;;;7.00;99.90;;;6.89;64.31;100864.28;5148780;27;19920;-75
2022/02/19 06:11:17;;;;;;;;;;;6.90;99.90;;;7.03;64.13;100894.19;5114103;28;19919;-75
2022/02/19 06:14:07;;;;;;;;;;;6.90;99.90;;;6.77;64.76;100872.94;5115415;28;20024;-76
2022/02/19 06:16:43;;;;;;;;;;;6.90;99.90;;;7.06;64.66;100889.00;5114126;28;19920;-76
2022/02/19 06:19:13;;;;;;;;;;;6.90;99.90;;;7.07;65.01;100903.88;5113709;28;19942;-76
2022/02/19 06:21:42;;;;;;;;;;;7.00;99.90;;;7.11;64.50;100897.78;5113973;28;19926;-75
2022/02/19 06:24:12;;;;;;;;;;;7.00;99.90;;;6.90;64.50;100881.81;5113565;28;19931;-75
2022/02/19 06:26:41;;;;;;;;;;;7.00;99.90;;;7.02;64.23;100909.13;5130948;27;19920;-75
2022/02/19 06:29:22;;;;;;;;;;;7.00;99.90;;;6.89;63.33;100887.94;5113908;28;19927;-75
2022/02/19 06:31:57;;;;;;;;;;;6.90;99.90;;;6.81;62.94;100894.84;5113727;28;19949;-75
2022/02/19 06:34:25;;;;;;;;;;;6.90;99.90;;;6.83;63.39;100915.03;5113611;28;19926;-75
2022/02/19 06:36:54;;;;;;;;;;;6.90;99.90;;;6.96;63.12;100916.94;5130649;27;19927;-75
2022/02/19 06:39:30;;;;;;;;;;;7.00;99.90;;;6.76;63.28;100901.78;5147829;27;19920;-75
2022/02/19 06:41:58;;;;;;;;;;;6.90;99.90;;;7.02;63.55;100940.69;5113441;28;20276;-75
2022/02/19 06:44:45;;;;;;;;;;;6.90;99.90;;;7.14;63.69;100950.44;5147997;27;19919;-75
2022/02/19 06:47:15;;;;;;;;;;;7.00;99.90;;;7.17;64.07;100956.63;5114455;28;20345;-75
2022/02/19 06:49:44;;;;;;;;;;;7.10;99.90;;;7.24;64.25;100954.91;5113367;28;19920;-75
2022/02/19 06:52:12;;;;;;;;;;;7.10;99.90;;;7.00;64.52;100952.94;5147674;27;20007;-75
2022/02/19 06:54:47;;;;;;;;;;;7.00;99.90;;;7.11;64.41;100971.44;5113357;28;20014;-75
2022/02/19 06:57:17;;;;;;;;;;;7.00;99.90;;;7.19;63.51;100969.78;5130495;27;19919;-76
2022/02/19 06:59:46;;;;;;;;;;;7.10;99.90;;;5.93;62.47;100796.59;5147595;27;19959;-75
2022/02/19 07:02:15;;;;;;;;;;;7.00;99.90;;;7.10;62.81;100986.31;5113379;28;20093;-75
2022/02/19 07:04:45;;;;;;;;;;;7.00;99.90;;;6.82;62.60;100925.53;5112788;28;19935;-75
2022/02/19 07:07:33;;;;;;;;;;;7.00;99.90;;;7.09;63.14;100978.41;5114213;28;19946;-75
2022/02/19 07:10:02;;;;;;;;;;;7.00;99.90;;;7.16;63.40;100991.66;5113170;28;20315;-76
2022/02/19 07:12:30;;;;;;;;;;;7.10;99.90;;;7.18;63.72;100984.66;5113078;28;19919;-75
2022/02/19 07:15:00;;;;;;;;;;;7.10;99.90;;;7.20;63.45;100988.19;5113953;28;19920;-75
2022/02/19 07:18:07;;;;;;;;;;;7.10;99.90;;;7.08;63.30;100953.00;5105899;28;19931;-75
2022/02/19 07:21:01;;;;;;;;;;;7.20;99.90;;;7.43;63.22;101004.25;5147350;27;19923;-75
2022/02/19 07:23:30;;;;;;;;;;;7.30;99.90;;;7.58;62.83;101011.41;5113918;28;19920;-75
2022/02/19 07:26:00;;;;;;;;;;;7.50;99.90;;;7.47;63.13;100998.13;5130052;28;19920;-75
2022/02/19 07:28:31;;;;;;;;;;;7.50;99.90;;;7.54;62.03;101018.38;5112951;28;20028;-75
2022/02/19 07:31:02;;;;;;;;;;;7.50;99.90;;;7.51;61.88;101010.44;5130017;28;19919;-75
2022/02/19 07:33:35;;;;;;;;;;;7.40;99.90;;;7.46;61.82;101012.16;5132265;27;20018;-74
2022/02/19 07:36:11;;;;;;;;;;;7.40;99.90;;;7.55;61.50;100995.59;5117311;28;19920;-70
2022/02/19 07:38:42;;;;;;;;;;;7.50;99.90;;;7.61;61.96;101014.94;5134375;27;19927;-70
2022/02/19 07:41:10;;;;;;;;;;;7.50;99.90;;;7.48;62.49;100991.13;5134133;27;19920;-67
2022/02/19 07:44:07;;;;;;;;;;;7.60;99.90;;;7.66;62.26;101015.00;5112850;27;19919;-67
2022/02/19 07:47:03;;;;;;;;;;;7.60;99.90;;;7.80;61.82;101032.66;5101191;28;19919;-68
2022/02/19 07:58:47;;;;;;;;;;;8.10;99.90;;;8.37;59.44;101052.50;5133846;27;20335;-68
2022/02/19 08:01:16;;;;;;;;;;;8.30;99.90;;;8.30;59.38;101042.78;5116672;28;19959;-69
2022/02/19 08:03:50;;;;;;;;;;;8.20;99.90;;;8.49;59.21;101055.22;5150796;27;19926;-69
2022/02/19 08:06:19;;;;;;;;;;;8.40;99.90;;;8.46;59.82;101063.13;5117475;28;20275;-69
2022/02/19 08:08:48;;;;;;;;;;;8.40;99.90;;;8.60;59.77;101070.25;5116434;28;20233;-72
2022/02/19 08:11:21;;;;;;;;;;;8.50;99.90;;;8.53;58.90;101063.19;5150991;27;19920;-70
2022/02/19 08:13:49;;;;;;;;;;;8.50;99.90;;;8.74;59.77;101067.69;5117425;28;19923;-68
2022/02/19 08:16:17;;;;;;;;;;;8.60;99.90;;;8.90;58.00;101072.19;5117554;28;19969;-70
2022/02/19 08:18:47;;;;;;;;;;;8.80;99.90;;;9.31;57.71;101073.25;5133540;27;19919;-71
2022/02/19 08:21:20;;;;;;;;;;;9.10;99.90;;;9.47;57.05;101095.31;5117661;27;19942;-70
2022/02/19 08:23:48;;;;;;;;;;;9.30;99.90;;;9.66;57.04;101071.59;5117120;28;19942;-71
2022/02/19 08:26:18;;;;;;;;;;;9.60;99.90;;;9.79;56.84;101104.22;5117091;27;19919;-71
2022/02/19 08:28:46;;;;;;;;;;;9.60;99.90;;;10.17;56.16;101101.66;5117517;27;19919;-69
2022/02/19 08:31:15;;;;;;;;;;;9.90;99.90;;;10.21;55.93;101106.09;5117024;27;20023;-69
2022/02/19 08:33:43;;;;;;;;;;;10.10;99.90;;;10.14;54.96;101088.47;5117252;28;19942;-68
2022/02/19 08:36:11;;;;;;;;;;;10.10;99.90;;;10.16;55.16;101115.78;5116841;28;20334;-69
2022/02/19 08:38:41;;;;;;;;;;;10.00;99.90;;;10.33;55.39;101112.28;5117326;28;19926;-68
2022/02/19 08:41:09;;;;;;;;;;;10.10;99.90;;;10.01;55.48;101104.25;5116938;28;20361;-72
2022/02/19 08:43:38;;;;;;;;;;;10.00;99.90;;;9.86;56.21;101106.88;5116232;28;20364;-71
2022/02/19 08:46:06;;;;;;;;;;;9.80;99.90;;;9.87;55.67;101071.66;5115885;28;19926;-73
2022/02/19 08:48:36;;;;;;;;;;;9.90;99.90;;;10.22;55.26;101114.00;5116958;28;20287;-73
2022/02/19 08:51:04;;;;;;;;;;;10.00;99.90;;;10.02;55.33;101107.81;5116710;28;19976;-72
2022/02/19 08:53:34;;;;;;;;;;;9.90;99.90;;;9.89;55.80;101098.94;5116705;28;19919;-72
2022/02/19 08:56:04;;;;;;;;;;;9.80;99.90;;;9.85;55.76;101120.97;5116492;28;19920;-73
2022/02/19 08:58:32;;;;;;;;;;;9.70;99.90;;;10.02;55.81;101111.34;5116590;28;20393;-70
2022/02/19 09:01:01;;;;;;;;;;;9.80;99.90;;;10.10;55.75;101116.66;5116533;28;19973;-72
2022/02/19 09:03:29;;;;;;;;;;;10.00;99.90;;;10.10;56.19;101121.94;5116281;28;19984;-70
2022/02/19 09:05:57;;;;;;;;;;;10.00;99.90;;;10.07;55.41;101106.03;5116695;28;20460;-74
2022/02/19 09:08:26;;;;;;;;;;;10.10;99.90;;;10.09;55.12;101132.47;5115031;28;19919;-74
2022/02/19 09:10:54;;;;;;;;;;;10.00;99.90;;;10.20;55.82;101136.06;5116190;28;19924;-72
2022/02/19 09:13:23;;;;;;;;;;;10.00;99.90;;;10.34;56.29;101144.84;5116389;28;19920;-73
2022/02/19 09:15:52;;;;;;;;;;;10.10;99.90;;;10.19;56.02;101121.06;5116384;27;20311;-73
2022/02/19 09:18:21;;;;;;;;;;;10.10;99.90;;;10.50;56.85;101151.94;5116079;28;19921;-72
2022/02/19 09:20:50;;;;;;;;;;;10.20;99.90;;;10.54;56.49;101114.91;5115999;28;19920;-72
2022/02/19 09:23:18;;;;;;;;;;;10.50;99.90;;;11.06;55.24;101142.19;5114879;28;19950;-73
2022/02/19 09:25:46;;;;;;;;;;;10.80;99.90;;;11.48;54.90;101165.00;5116449;28;19926;-73
2022/02/19 09:28:15;;;;;;;;;;;11.20;99.90;;;11.69;53.11;101142.00;5116132;28;19928;-72
2022/02/19 09:30:45;;;;;;;;;;;11.40;99.90;;;11.94;52.69;101139.22;5116181;27;20359;-73
2022/02/19 09:33:13;;;;;;;;;;;11.70;99.90;;;12.01;52.56;101144.50;5115714;28;19919;-70
2022/02/19 09:35:41;;;;;;;;;;;11.80;99.90;;;11.98;52.46;101143.63;5115929;28;20372;-71
2022/02/19 09:38:09;;;;;;;;;;;11.70;99.90;;;11.99;52.14;101150.69;5116026;28;19965;-70
2022/02/19 09:40:37;;;;;;;;;;;11.80;99.90;;;11.63;51.96;101143.78;5114692;28;19966;-72
2022/02/19 09:43:06;;;;;;;;;;;11.50;99.90;;;11.63;52.26;101127.88;5115719;28;20293;-69
2022/02/19 09:45:34;;;;;;;;;;;11.50;99.90;;;12.04;52.58;101148.91;5115427;28;19959;-71
2022/02/19 09:48:08;;;;;;;;;;;11.70;99.90;;;12.15;51.71;101153.25;5115697;28;19927;-72
2022/02/19 09:50:37;;;;;;;;;;;11.90;99.90;;;12.11;52.14;101154.16;5115846;28;19926;-73
2022/02/19 09:53:05;;;;;;;;;;;11.90;99.90;;;12.50;51.62;101169.78;5131637;27;20525;-72
2022/02/19 09:55:36;;;;;;;;;;;12.20;99.90;;;12.58;50.66;101167.09;5115322;28;19931;-73
2022/02/19 09:58:04;;;;;;;;;;;12.40;99.90;;;12.46;50.91;101154.81;5114396;28;19972;-71
2022/02/19 10:00:39;;;;;;;;;;;12.20;99.90;;;12.18;52.02;101158.53;5115251;28;19919;-71
2022/02/19 10:03:27;;;;;;;;;;;12.10;99.90;;;12.02;52.31;101199.25;5114803;28;19919;-72
2022/02/19 10:05:57;;;;;;;;;;;11.90;99.90;;;11.75;52.85;101180.84;5115305;28;19924;-71
2022/02/19 10:08:26;;;;;;;;;;;11.60;99.90;;;11.28;53.83;101185.38;5115423;28;20353;-71
2022/02/19 10:10:56;;;;;;;;;;;11.20;99.90;;;11.09;54.24;101178.38;5115087;27;20369;-71
2022/02/19 10:13:30;;;;;;;;;;;10.90;99.90;;;11.05;55.02;101169.56;5115187;28;19927;-72
2022/02/19 10:16:02;;;;;;;;;;;10.80;99.90;;;10.87;56.00;101174.84;5114914;28;20343;-72
2022/02/19 10:18:32;;;;;;;;;;;10.70;99.90;;;10.98;55.49;101185.41;5115662;28;19927;-68
2022/02/19 10:21:13;;;;;;;;;;;10.70;99.90;;;10.81;56.65;101167.81;5115071;28;19941;-73
2022/02/19 10:23:43;;;;;;;;;;;10.70;99.90;;;11.00;56.89;101202.19;5115514;28;19919;-74
2022/02/19 10:26:12;;;;;;;;;;;10.70;99.90;;;10.94;57.12;101141.34;5114765;28;20040;-73
2022/02/19 10:28:41;;;;;;;;;;;10.90;99.90;;;11.48;56.18;101176.50;5114698;28;20456;-73
2022/02/19 10:31:11;;;;;;;;;;;11.20;99.90;;;11.22;54.89;101183.63;5114682;28;19958;-74
2022/02/19 10:33:41;;;;;;;;;;;11.10;99.90;;;11.08;55.58;101153.66;5114662;28;19927;-74
2022/02/19 10:36:15;;;;;;;;;;;11.00;99.90;;;11.53;56.07;101182.69;5114791;28;19920;-74
2022/02/19 10:38:54;;;;;;;;;;;11.20;99.90;;;11.70;55.19;101172.03;5114195;28;19920;-73
2022/02/19 10:41:33;;;;;;;;;;;11.50;99.90;;;11.55;54.85;101170.31;5114734;28;19920;-73
2022/02/19 10:44:19;;;;;;;;;;;11.50;99.90;;;11.65;54.81;101180.00;5115035;28;19927;-72
2022/02/19 10:46:48;;;;;;;;;;;11.50;99.90;;;11.85;54.92;101193.16;5114656;27;19934;-72
2022/02/19 10:49:18;;;;;;;;;;;11.60;99.90;;;12.07;54.66;101197.47;5130472;27;19930;-72
2022/02/19 10:51:46;;;;;;;;;;;11.70;99.90;;;11.92;54.53;101194.03;5114301;28;20342;-72
2022/02/19 10:54:20;;;;;;;;;;;11.80;99.90;;;11.78;55.08;101200.28;5114714;28;19980;-72
2022/02/19 10:56:48;;;;;;;;;;;11.60;99.90;;;11.77;54.56;101166.69;5114235;28;19920;-72
2022/02/19 10:59:19;;;;;;;;;;;11.70;99.90;;;11.52;54.74;101203.84;5130121;27;20014;-67
2022/02/19 11:01:49;;;;;;;;;;;11.40;99.90;;;11.55;54.69;101201.22;5114414;28;20018;-72
2022/02/19 11:04:22;;;;;;;;;;;11.30;99.90;;;11.52;53.80;101201.19;5114049;28;19969;-70
2022/02/19 11:06:53;;;;;;;;;;;11.30;99.90;;;11.65;54.58;101187.94;5114040;28;19954;-71
2022/02/19 11:09:21;;;;;;;;;;;11.30;99.90;;;11.70;53.84;101190.59;5113841;28;19919;-71
2022/02/19 11:11:50;;;;;;;;;;;11.50;99.90;;;11.62;53.17;101165.84;5114099;28;20347;-70
2022/02/19 11:14:18;;;;;;;;;;;11.60;99.90;;;11.19;52.23;101085.66;5113101;28;19920;-70
2022/02/19 11:16:49;;;;;;;;;;;11.50;99.90;;;11.81;51.91;101161.41;5113021;28;19924;-68
2022/02/19 11:19:18;;;;;;;;;;;11.60;99.90;;;11.62;51.67;101134.06;5113698;28;19927;-66
2022/02/19 11:21:47;;;;;;;;;;;11.60;99.90;;;11.89;51.82;101162.22;5113655;28;19969;-68
2022/02/19 11:24:16;;;;;;;;;;;11.70;99.90;;;11.88;52.29;101168.41;5113762;28;19923;-69
2022/02/19 11:26:46;;;;;;;;;;;11.60;99.90;;;11.29;52.60;101081.22;5113902;28;20022;-67
2022/02/19 11:29:17;;;;;;;;;;;11.70;99.90;;;11.57;52.67;101133.19;5114030;28;19927;-70
2022/02/19 11:31:46;;;;;;;;;;;11.60;99.90;;;11.36;52.41;101094.41;5113935;28;19997;-69
2022/02/19 11:34:23;;;;;;;;;;;11.50;99.90;;;11.73;52.22;101126.97;5113909;28;20482;-72
2022/02/19 11:36:53;;;;;;;;;;;11.70;99.90;;;11.93;51.54;101167.50;5113755;28;19920;-69
2022/02/19 11:39:21;;;;;;;;;;;11.70;99.90;;;11.90;52.01;101166.66;5113817;28;19965;-70
2022/02/19 11:41:49;;;;;;;;;;;11.70;99.90;;;11.85;52.29;101163.13;5113987;28;19920;-68
2022/02/19 11:44:28;;;;;;;;;;;11.60;99.90;;;11.29;52.52;101118.28;5129546;28;19920;-67
2022/02/19 11:46:57;;;;;;;;;;;11.40;99.90;;;11.49;53.86;101166.78;5113868;28;19923;-72
2022/02/19 11:49:28;;;;;;;;;;;11.20;99.90;;;11.38;53.45;101161.50;5112650;28;19924;-72
2022/02/19 11:52:18;;;;;;;;;;;11.10;99.90;;;11.02;54.20;101158.94;5113913;28;19969;-75